Sines, Portugal

5:14 PM WEST on July 26, 2016 (GMT +0100)
Sines - ZIL2 | | Change Station

Elev 167 ft 37.96 °N, 8.85 °W | Updated 2 minutes ago

Clear
Clear
69.3 °F
Feels Like 69.3 °F
N
8.0
Wind Variable Wind from West
Gusts 20.0 mph

Today
High -- | Low -- °F
--% Chance of Precip.
Yesterday
High -- | Low -- °F
Precip. -- in
Pressure 30.01 in
Visibility -9999.0 miles
Clouds
Dew Point 64 °F
Humidity 83%
Rainfall 0.00 in
Snow Depth Not available.
6:33 AM 8:49 PM
Waning Gibbous, 53% visible
METAR LPBJ 261600Z 30014KT CAVOK 38/08 Q1016
Pressure 30.01 in
Visibility -9999.0 miles
Clouds
Dew Point 64 °F
Humidity 83%
Rainfall 0.00 in
Snow Depth Not available.
6:33 AM 8:49 PM
Waning Gibbous, 53% visible
METAR LPBJ 261600Z 30014KT CAVOK 38/08 Q1016

10-Day Weather Forecast

×

Almanac

Astronomy

Jul. 26, 2016 Rise Set
Actual Time
Civil Twilight
Nautical Twilight
Astronomical Twilight
Moon
Length of Visible Light
Length of Day
Tomorrow will be .
, % of the Moon is Illuminated

Today's Extremes

Country Highs Country Lows

Community

WunderPhotos

Upload Photos

1,927,625 photos uploaded!

WunderBlog® & News

Nearby

Air Quality

  Air Quality AQ Index Pollutant
Not available.

Snow Depth

Station Depth Elevation

Earthquake Activity

City Distance Mag. Time & Date
Minimum magnitude displayed is 2.5.

Coastal Water Temperatures

Place Temperature

Stations

Nearby Weather Stations

Station Location Temp. Windchill Dew Point Humidity Wind Precip. Elev Updated Type